Flight Track Log - Related Links

Times and Time Zones

All times are in EDT time to prevent confusion due to time zone crossing. See the VRT51 flight status page for this flight to view local times or setup timezone preferences in your user account.

Time Position Orientation Groundspeed Altitude Reporting Facility
EDT Latitude Longitude Course Direction KTS MPH feet Rate Location/Type
Fri 06:09:41 PM 39.1953 -77.2922 238° Southwest 363 418 43,000  Level Washington Center
Fri 06:10:43 PM 39.1169 -77.3761 220° Southwest 368 423 43,000  Level Washington Center
Fri 06:11:40 PM 39.0344 -77.4594 218° Southwest 368 423 43,000  Level Washington Center
Fri 06:12:41 PM 38.9517 -77.5428 218° Southwest 376 433 43,000  Level Washington Center
Fri 06:13:41 PM 38.8625 -77.6392 220° Southwest 381 438 43,000  Level Washington Center
Fri 06:14:40 PM 38.7778 -77.7219 217° Southwest 381 438 43,000  Level Washington Center
Fri 06:15:00 PM 39.5324 -76.7505 238° Southwest  Level Estimated
Fri 06:15:40 PM 38.6969 -77.8075 220° Southwest 391 450 43,000  Level Washington Center
Fri 06:16:39 PM 38.6225 -77.8956 223° Southwest 385 443 43,000  Level Washington Center
Fri 06:17:39 PM 38.5619 -78.0025 234° Southwest 374 430 43,000  Level Washington Center
Fri 06:18:40 PM 38.4994 -78.1067 233° Southwest 374 430 43,000  Level Washington Center
Fri 06:19:41 PM 38.4386 -78.2106 233° Southwest 374 430 43,000  Level Washington Center
Fri 06:20:39 PM 38.3739 -78.3169 232° Southwest 379 436 43,000  Level Washington Center
Fri 06:21:40 PM 38.3108 -78.4231 233° Southwest 379 436 43,000  Level Washington Center
Fri 06:22:40 PM 38.2478 -78.5292 233° Southwest 379 436 43,000  Level Washington Center
Fri 06:23:41 PM 38.1911 -78.6325 235° Southwest 371 427 43,000  Level Washington Center
Fri 06:24:39 PM 38.1300 -78.7383 234° Southwest 376 433 43,000  Level Washington Center
Fri 06:25:39 PM 38.0667 -78.8439 233° Southwest 382 440 43,000  Level Washington Center
Fri 06:26:41 PM 37.9989 -78.9517 231° Southwest 382 440 43,000  Level Washington Center
Fri 06:27:41 PM 37.9442 -79.0439 233° Southwest 382 440 43,000  Level Washington Center
Fri 06:28:39 PM 37.8806 -79.1542 234° Southwest 382 440 43,000  Level Washington Center
Fri 06:29:40 PM 37.8269 -79.2700 240° Southwest 382 440 43,000  Level Washington Center
Fri 06:30:39 PM 37.7644 -79.3983 238° Southwest 387 445 43,000  Level Washington Center
Fri 06:31:40 PM 37.7128 -79.5139 241° Southwest 387 445 43,000  Level Washington Center
Fri 06:32:40 PM 37.6508 -79.6258 235° Southwest 395 455 43,000  Level Washington Center
Fri 06:33:41 PM 37.6014 -79.7256 238° Southwest 395 455 43,000  Level Washington Center
Fri 06:35:16 PM 37.5011 -79.9297 238° Southwest 409 471 43,000  Level Atlanta Center
Fri 06:36:16 PM 37.4425 -80.0453 237° Southwest 402 463 43,000  Level Atlanta Center
Fri 06:37:16 PM 37.3836 -80.1578 237° Southwest 402 463 43,000  Level Atlanta Center
Fri 06:38:16 PM 37.3325 -80.2622 238° Southwest 402 463 43,000  Level Atlanta Center
Fri 06:39:16 PM 37.2756 -80.3744 237° Southwest 402 463 43,000  Level Atlanta Center
Fri 06:40:16 PM 37.2164 -80.4892 237° Southwest 402 463 43,000  Level Atlanta Center
Fri 06:41:16 PM 37.1592 -80.6064 239° Southwest 402 463 43,000  Level Atlanta Center
Fri 06:42:16 PM 37.0958 -80.7289 237° Southwest 397 457 43,000  Level Atlanta Center
Fri 06:43:16 PM 37.0383 -80.8406 237° Southwest 397 457 43,000  Level Atlanta Center
Fri 06:44:16 PM 36.9828 -80.9494 237° Southwest 387 445 43,000  Level Atlanta Center
Fri 06:45:16 PM 36.9331 -81.0447 237° Southwest 381 438 43,000  Level Atlanta Center
Fri 06:46:16 PM 36.8814 -81.1506 239° Southwest 375 432 43,000  Level Atlanta Center
Fri 06:47:16 PM 36.8236 -81.2614 237° Southwest 381 438 43,000  Level Atlanta Center
Fri 06:48:16 PM 36.7575 -81.3831 236° Southwest 381 438 43,000  Level Atlanta Center
Fri 06:49:16 PM 36.7136 -81.4803 241° Southwest 370 426 43,000  Level Atlanta Center
Fri 06:50:16 PM 36.6472 -81.6039 236° Southwest 384 442 43,000  Level Atlanta Center
Fri 06:51:16 PM 36.5889 -81.7144 237° Southwest 384 442 43,000  Level Atlanta Center
Fri 06:52:16 PM 36.5306 -81.8297 238° Southwest 389 448 43,000  Level Atlanta Center
Fri 06:53:16 PM 36.4719 -81.9397 236° Southwest 389 448 43,000  Level Atlanta Center
Fri 06:54:16 PM 36.4114 -82.0522 236° Southwest 389 448 43,000  Level Atlanta Center
Fri 06:55:16 PM 36.3525 -82.1647 237° Southwest 395 455 43,000  Level Atlanta Center
Fri 06:56:16 PM 36.2997 -82.2611 236° Southwest 390 449 43,000  Level Atlanta Center
Fri 06:57:16 PM 36.2408 -82.3731 237° Southwest 390 449 43,000  Level Atlanta Center
Fri 06:58:16 PM 36.1839 -82.4825 237° Southwest 390 449 43,000  Level Atlanta Center
Fri 06:59:16 PM 36.1247 -82.5889 235° Southwest 390 449 43,000  Level Atlanta Center
Fri 07:00:16 PM 36.0675 -82.6978 237° Southwest 390 449 43,000  Level Atlanta Center
Fri 07:01:16 PM 36.0083 -82.8067 236° Southwest 385 443 43,000  Level Atlanta Center
Fri 07:02:16 PM 35.9508 -82.9128 236° Southwest 380 437 43,000  Level Atlanta Center
Fri 07:03:16 PM 35.8933 -83.0211 237° Southwest 380 437 43,000  Level Atlanta Center
Fri 07:04:16 PM 35.8358 -83.1269 236° Southwest 374 430 43,000  Level Atlanta Center
Fri 07:05:16 PM 35.7783 -83.2325 236° Southwest 379 436 43,000  Level Atlanta Center
Fri 07:06:16 PM 35.7206 -83.3378 236° Southwest 379 436 43,000  Level Atlanta Center
Fri 07:07:16 PM 35.6625 -83.4431 236° Southwest 379 436 43,000  Level Atlanta Center
Fri 07:08:16 PM 35.6025 -83.5508 236° Southwest 379 436 43,000  Level Atlanta Center
Fri 07:09:16 PM 35.5444 -83.6558 236° Southwest 379 436 43,000  Level Atlanta Center
Fri 07:10:16 PM 35.4864 -83.7658 237° Southwest 379 436 43,000  Level Atlanta Center
Fri 07:11:16 PM 35.4281 -83.8681 235° Southwest 379 436 43,000  Level Atlanta Center
Fri 07:12:16 PM 35.3678 -83.9750 235° Southwest 379 436 43,000  Level Atlanta Center
Fri 07:13:16 PM 35.3094 -84.0819 236° Southwest 379 436 43,000  Level Atlanta Center
Fri 07:14:16 PM 35.2489 -84.1889 235° Southwest 385 443 43,000  Level Atlanta Center
Fri 07:15:16 PM 35.1839 -84.3056 236° Southwest 385 443 43,000  Level Atlanta Center
Fri 07:16:16 PM 35.1253 -84.4119 236° Southwest 385 443 43,000 -200 Level Atlanta Center
Fri 07:17:16 PM 35.0644 -84.5158 234° Southwest 385 443 42,600 -1,000 Descending Atlanta Center
Fri 07:18:04 PM 35.0181 -84.5992 236° Southwest 380 437 41,200 -1,778 Descending Atlanta Center
Fri 07:19:04 PM 34.9592 -84.7053 236° Southwest 380 437 39,400 -1,850 Descending Atlanta Center
Fri 07:20:04 PM 34.8981 -84.8136 236° Southwest 380 437 37,500 1,800 Descending Atlanta Center
Fri 07:21:04 PM 34.8347 -84.9244 235° Southwest 385 443 43,000 -1,800 Climbing Atlanta Center
Fri 07:22:04 PM 34.7692 -85.0375 235° Southwest 399 459 33,900 -5,450 Descending Atlanta Center
Fri 07:23:04 PM 34.6992 -85.1606 235° Southwest 422 486 32,100 -1,850 Descending Atlanta Center
Fri 07:24:04 PM 34.6269 -85.2833 234° Southwest 436 502 30,200 -1,950 Descending Atlanta Center
Fri 07:25:04 PM 34.5589 -85.4033 235° Southwest 447 514 28,200 -2,000 Descending Atlanta Center
Fri 07:26:04 PM 34.4908 -85.5206 235° Southwest 442 509 26,200 -2,000 Descending Atlanta Center
Fri 07:27:04 PM 34.4225 -85.6378 235° Southwest 442 509 24,200 -2,000 Descending Atlanta Center
Fri 07:28:04 PM 34.3628 -85.7425 235° Southwest 437 503 22,200 -2,000 Descending Atlanta Center
Fri 07:29:04 PM 34.2878 -85.8642 233° Southwest 426 490 20,200 -1,950 Descending Atlanta Center
Fri 07:30:04 PM 34.2214 -85.9783 235° Southwest 426 490 18,300 -1,900 Descending Atlanta Center
Fri 07:31:04 PM 34.1572 -86.0872 235° Southwest 421 484 16,400 -1,900 Descending Atlanta Center
Fri 07:33:04 PM 34.0303 -86.2972 234° Southwest 408 470 12,600 -1,733 Descending Atlanta Center
Fri 07:34:04 PM 33.9678 -86.4008 234° Southwest 402 463 11,200 -850 Descending Atlanta Center
Fri 07:35:04 PM 33.9094 -86.4992 234° Southwest 391 450 10,900 -632 Descending Atlanta Center
Fri 07:35:39 PM 33.8750 -86.5508 231° Southwest 294 338 10,200 -1,412 Descending Atlanta Center
Fri 07:36:46 PM 33.8194 -86.6217 227° Southwest 285 328 8,500 -1,500 Descending Atlanta Center
Fri 07:37:47 PM 33.7700 -86.6853 227° Southwest 252 290 7,000 -1,456 Descending Atlanta Center
Fri 07:38:29 PM 33.7356 -86.7292 227° Southwest 261 300 6,000 -1,091 Descending Atlanta Center
Fri 07:39:04 PM 33.7078 -86.7631 225° Southwest 266 306 5,600 -1,200 Descending Atlanta Center
Fri 07:40:04 PM 33.6586 -86.8217 225° Southwest 261 300 4,100 -1,300 Descending Atlanta Center
Fri 07:41:04 PM 33.6133 -86.8775 226° Southwest 256 295 3,000 -710 Descending Atlanta Center
Fri 07:41:37 PM 33.5875 -86.9089 225° Southwest 209 241 3,000  Level Atlanta Center
Fri 07:42:32 PM 33.5575 -86.9503 229° Southwest 186 214 3,000  Level Atlanta Center
Fri 07:43:04 PM 33.5381 -86.9722 223° Southwest 212 244 3,000 -220 Level Atlanta Center
Fri 07:44:21 PM 33.4842 -86.9578 167° South 160 184 2,600 -174 Descending Atlanta Center
Fri 07:45:22 PM 33.4747 -86.9103 103° East 158 182 2,600 -104 Level Atlanta Center
Fri 07:46:16 PM 33.5008 -86.8664 54° Northeast 166 191 2,400 -470 Descending Atlanta Center
Fri 07:47:17 PM 33.5206 -86.8269 59° Northeast 139 160 1,700 -645 Descending Atlanta Center
Fri 07:48:17 PM 33.5400 -86.7978 51° Northeast 111 128 1,100 -600 Descending Atlanta Center

Login

Don't have an account? Register now (free) for customized features, flight alerts, and more!